Time;durP1;ratioP1;P1;durP2;ratioP2;P2;SDS_P1;SDS_P2;PMS_P1;PMS_P2;Temp;Humidity;BMP_temperature;BMP_pressure;BME280_temperature;BME280_humidity;BME280_pressure;Samples;Min_cycle;Max_cycle;Signal;HPM_P1;HPM_P2
2023/03/15 00:00:47;;;;;;;5.38;1.90;;;11.80;99.90;;;;;;4587258;19;21028;-31
2023/03/15 00:02:24;;;;;;;3.23;2.00;;;11.80;99.90;;;;;;4587775;19;20036;-30
2023/03/15 00:03:56;;;;;;;3.67;2.10;;;11.70;99.90;;;;;;4589243;19;20437;-34
2023/03/15 00:05:30;;;;;;;2.83;1.73;;;11.70;99.90;;;;;;4589364;19;20437;-31
2023/03/15 00:07:02;;;;;;;3.50;1.83;;;11.70;99.90;;;;;;4589317;19;20421;-29
2023/03/15 00:08:35;;;;;;;4.43;2.27;;;11.80;99.90;;;;;;4589369;19;21041;-32
2023/03/15 00:10:08;;;;;;;4.27;2.10;;;11.80;99.90;;;;;;4589280;19;20474;-33
2023/03/15 00:11:41;;;;;;;3.93;2.10;;;11.90;99.90;;;;;;4588313;19;21140;-33
2023/03/15 00:13:13;;;;;;;4.50;2.08;;;11.90;99.90;;;;;;4586836;19;20567;-32
2023/03/15 00:14:45;;;;;;;5.32;1.90;;;11.90;99.90;;;;;;4588655;19;20025;-31
2023/03/15 00:16:17;;;;;;;4.43;1.80;;;11.90;99.90;;;;;;4588880;19;20468;-34
2023/03/15 00:17:48;;;;;;;3.00;1.30;;;11.90;99.90;;;;;;4589189;19;20014;-34
2023/03/15 00:19:21;;;;;;;4.07;1.27;;;11.90;99.90;;;;;;4589149;19;20487;-33
2023/03/15 00:20:52;;;;;;;4.20;1.80;;;11.90;99.90;;;;;;4589212;19;20436;-31
2023/03/15 00:22:25;;;;;;;4.33;1.80;;;11.90;99.90;;;;;;4589163;19;20007;-30
2023/03/15 00:23:57;;;;;;;6.18;2.30;;;11.90;99.90;;;;;;4589071;19;20965;-30
2023/03/15 00:25:28;;;;;;;6.00;2.65;;;11.90;99.90;;;;;;4589057;19;20014;-34
2023/03/15 00:27:00;;;;;;;5.17;2.47;;;11.90;99.90;;;;;;4589446;19;20010;-32
2023/03/15 00:28:31;;;;;;;4.95;1.92;;;11.90;99.90;;;;;;4589106;19;20421;-31
2023/03/15 00:30:06;;;;;;;4.80;2.43;;;11.90;99.90;;;;;;4588441;19;20039;-31
2023/03/15 00:31:37;;;;;;;;;;;11.90;99.90;;;;;;4589686;19;20433;-33
2023/03/15 00:33:12;;;;;;;17.65;11.40;;;11.90;99.90;;;;;;4588154;19;20280;-32
2023/03/15 00:34:47;;;;;;;16.10;8.50;;;11.90;99.90;;;;;;4588027;19;20070;-31
2023/03/15 00:36:23;;;;;;;7.63;3.00;;;11.90;99.90;;;;;;4588575;19;20447;-30
2023/03/15 00:37:55;;;;;;;15.97;6.50;;;11.90;99.90;;;;;;4589323;19;20401;-34
2023/03/15 00:39:27;;;;;;;6.68;2.53;;;11.90;99.90;;;;;;4589029;19;20441;-32
2023/03/15 00:41:09;;;;;;;4.33;2.50;;;11.90;99.90;;;;;;4589110;19;20023;-32
2023/03/15 00:42:48;;;;;;;7.10;4.05;;;11.80;99.90;;;;;;4589094;19;20471;-31
2023/03/15 00:44:19;;;;;;;6.63;2.87;;;11.80;99.90;;;;;;4592018;19;20074;-30
2023/03/15 00:45:51;;;;;;;7.45;2.65;;;11.80;99.90;;;;;;4593705;19;20451;-30
2023/03/15 00:47:22;;;;;;;5.75;2.28;;;11.80;99.90;;;;;;4593647;19;20052;-30
2023/03/15 00:48:53;;;;;;;6.95;2.63;;;11.80;99.90;;;;;;4593603;19;20255;-31
2023/03/15 00:50:25;;;;;;;4.63;2.90;;;11.70;99.90;;;;;;4593555;19;20090;-30
2023/03/15 00:51:57;;;;;;;5.37;2.23;;;11.80;99.90;;;;;;4593690;19;20022;-30
2023/03/15 00:53:29;;;;;;;4.60;2.10;;;11.80;99.90;;;;;;4592544;19;20433;-31
2023/03/15 00:55:02;;;;;;;5.30;2.50;;;11.80;99.90;;;;;;4593702;19;20803;-30
2023/03/15 00:56:37;;;;;;;6.57;2.50;;;11.80;99.90;;;;;;4592923;19;20455;-35
2023/03/15 00:58:09;;;;;;;6.38;2.97;;;11.80;99.90;;;;;;4593456;19;20425;-33
2023/03/15 00:59:43;;;;;;;7.63;2.90;;;11.80;99.90;;;;;;4593411;19;20018;-29
2023/03/15 01:01:17;;;;;;;7.90;3.17;;;11.80;99.90;;;;;;4593135;19;20437;-31
2023/03/15 01:02:51;;;;;;;5.73;2.93;;;11.80;99.90;;;;;;4591757;19;20449;-31
2023/03/15 01:04:24;;;;;;;7.93;2.73;;;11.80;99.90;;;;;;4592986;19;20552;-29
2023/03/15 01:05:55;;;;;;;4.40;2.28;;;11.80;99.90;;;;;;4592947;19;20471;-30
2023/03/15 01:07:27;;;;;;;;;;;11.80;99.90;;;;;;4594469;19;20031;-30
2023/03/15 01:09:00;;;;;;;6.53;3.33;;;11.80;99.90;;;;;;4593595;19;19942;-29
2023/03/15 01:10:34;;;;;;;7.20;3.28;;;11.70;99.90;;;;;;4593077;19;20417;-30
2023/03/15 01:12:07;;;;;;;6.20;2.97;;;11.70;99.90;;;;;;4592989;19;20014;-30
2023/03/15 01:13:40;;;;;;;7.80;3.93;;;11.80;99.90;;;;;;4590517;19;20464;-29
2023/03/15 01:15:13;;;;;;;8.37;3.30;;;11.80;99.90;;;;;;4592500;19;20444;-29
2023/03/15 01:16:45;;;;;;;7.90;3.43;;;11.80;99.90;;;;;;4591828;19;21028;-32
2023/03/15 01:18:17;;;;;;;6.57;2.90;;;11.80;99.90;;;;;;4591935;19;20505;-31
2023/03/15 01:19:50;;;;;;;6.80;3.22;;;11.80;99.90;;;;;;4592564;19;20010;-31
2023/03/15 01:21:22;;;;;;;9.23;4.50;;;11.80;99.90;;;;;;4592978;19;20010;-29
2023/03/15 01:22:53;;;;;;;;;;;11.80;99.90;;;;;;4593755;19;21158;-31
2023/03/15 01:24:24;;;;;;;12.00;7.60;;;11.80;99.90;;;;;;4592856;19;19918;-30
2023/03/15 01:26:01;;;;;;;16.13;7.30;;;11.80;99.90;;;;;;4592847;19;20413;-30
2023/03/15 01:27:33;;;;;;;12.87;5.07;;;11.80;99.90;;;;;;4592641;19;20528;-29
2023/03/15 01:29:06;;;;;;;20.27;9.00;;;11.80;99.90;;;;;;4592833;19;20425;-29
2023/03/15 01:30:38;;;;;;;12.27;6.70;;;11.80;99.90;;;;;;4592732;19;20481;-34
2023/03/15 01:32:10;;;;;;;15.95;7.13;;;11.80;99.90;;;;;;4592883;19;20429;-30
2023/03/15 01:33:42;;;;;;;17.57;5.90;;;11.80;99.90;;;;;;4592589;19;20046;-31
2023/03/15 01:35:15;;;;;;;21.33;8.50;;;11.70;99.90;;;;;;4592653;19;20470;-30
2023/03/15 01:36:52;;;;;;;11.00;3.17;;;11.80;99.90;;;;;;4591494;19;20449;-29
2023/03/15 01:38:23;;;;;;;9.67;3.73;;;11.70;99.90;;;;;;4591433;19;20421;-30
2023/03/15 01:39:54;;;;;;;8.98;3.63;;;11.70;99.90;;;;;;4592045;19;20428;-31
2023/03/15 01:41:27;;;;;;;10.37;5.80;;;11.80;99.90;;;;;;4592260;19;20078;-30
2023/03/15 01:43:04;;;;;;;9.93;4.77;;;11.80;99.90;;;;;;4592220;19;20527;-30
2023/03/15 01:44:49;;;;;;;9.83;4.00;;;11.80;99.90;;;;;;4592790;19;21027;-30
2023/03/15 01:46:33;;;;;;;10.80;4.07;;;11.80;99.90;;;;;;4592618;19;20459;-32
2023/03/15 01:48:05;;;;;;;9.17;4.13;;;11.80;99.90;;;;;;4592455;19;20409;-30
2023/03/15 01:49:38;;;;;;;9.47;4.50;;;11.90;99.90;;;;;;4591067;19;20421;-30
2023/03/15 01:51:15;;;;;;;5.77;3.13;;;11.80;99.90;;;;;;4591361;19;21041;-30
2023/03/15 01:52:46;;;;;;;9.33;4.43;;;11.80;99.90;;;;;;4591099;19;20417;-29
2023/03/15 01:54:50;;;;;;;9.80;3.45;;;11.80;99.90;;;;;;4589476;19;20483;-34
2023/03/15 01:56:22;;;;;;;5.50;2.80;;;11.80;99.90;;;;;;4588303;19;20030;-30
2023/03/15 01:57:55;;;;;;;8.55;3.20;;;11.80;99.90;;;;;;4592015;19;21105;-29
2023/03/15 01:59:32;;;;;;;8.97;3.83;;;11.80;99.90;;;;;;4591861;19;20021;-31
2023/03/15 02:01:04;;;;;;;10.53;2.97;;;11.80;99.90;;;;;;4590983;19;20467;-29
2023/03/15 02:02:35;;;;;;;9.50;3.30;;;11.80;99.90;;;;;;4589829;19;20512;-30
2023/03/15 02:04:09;;;;;;;8.90;3.80;;;11.80;99.90;;;;;;4591062;19;20078;-34
2023/03/15 02:05:45;;;;;;;14.40;3.73;;;11.80;99.90;;;;;;4590671;19;20468;-29
2023/03/15 02:07:16;;;;;;;8.37;3.40;;;11.80;99.90;;;;;;4591201;19;20417;-32
2023/03/15 02:08:58;;;;;;;9.43;3.72;;;11.80;99.90;;;;;;4590608;19;20777;-33
2023/03/15 02:10:43;;;;;;;9.90;3.65;;;11.80;99.90;;;;;;4591765;19;20015;-34
2023/03/15 02:12:14;;;;;;;8.33;3.67;;;11.80;99.90;;;;;;4592043;19;20115;-30
2023/03/15 02:13:46;;;;;;;10.60;4.13;;;11.70;99.90;;;;;;4590892;19;20469;-33
2023/03/15 02:15:17;;;;;;;;;;;11.70;99.90;;;;;;4591505;19;20014;-31
2023/03/15 02:16:48;;;;;;;12.03;5.27;;;11.70;99.90;;;;;;4589585;19;19922;-29
2023/03/15 02:18:20;;;;;;;11.23;3.90;;;11.70;99.90;;;;;;4591135;19;20021;-31
2023/03/15 02:20:08;;;;;;;11.13;5.15;;;11.70;99.90;;;;;;4592019;19;20531;-33
2023/03/15 02:21:48;;;;;;;11.23;4.87;;;11.70;99.90;;;;;;4591667;19;20018;-32
2023/03/15 02:23:20;;;;;;;11.60;4.23;;;11.70;99.90;;;;;;4591513;19;20441;-31
2023/03/15 02:25:04;;;;;;;11.33;4.50;;;11.70;99.90;;;;;;4590282;19;20886;-29
2023/03/15 02:26:50;;;;;;;12.10;4.13;;;11.70;99.90;;;;;;4589139;19;20469;-30
2023/03/15 02:28:21;;;;;;;12.83;4.23;;;11.70;99.90;;;;;;4589162;19;20467;-32
2023/03/15 02:29:52;;;;;;;11.00;4.45;;;11.70;99.90;;;;;;4589593;19;20487;-34
2023/03/15 02:31:25;;;;;;;9.40;4.37;;;11.70;99.90;;;;;;4589275;19;20007;-33
2023/03/15 02:32:59;;;;;;;10.77;4.30;;;11.70;99.90;;;;;;4589309;19;21024;-30
2023/03/15 02:34:31;;;;;;;11.43;4.17;;;11.70;99.90;;;;;;4589379;19;20441;-30
2023/03/15 02:36:27;;;;;;;12.00;5.60;;;11.70;99.90;;;;;;4589199;19;20424;-32
2023/03/15 02:38:01;;;;;;;8.67;3.73;;;11.60;99.90;;;;;;4589082;19;20437;-31
2023/03/15 02:39:32;;;;;;;9.53;4.07;;;11.70;99.90;;;;;;4589052;19;20861;-32
2023/03/15 02:41:05;;;;;;;9.57;3.93;;;11.60;99.90;;;;;;4588925;19;20930;-31
2023/03/15 02:42:36;;;;;;;13.15;5.68;;;11.60;99.90;;;;;;4589157;19;20498;-29
2023/03/15 02:44:16;;;;;;;10.98;3.55;;;11.60;99.90;;;;;;4588895;19;20381;-33
2023/03/15 02:45:48;;;;;;;9.83;4.40;;;11.70;99.90;;;;;;4588938;19;20010;-34
2023/03/15 02:47:26;;;;;;;7.53;3.30;;;11.60;99.90;;;;;;4588961;19;20441;-32
2023/03/15 02:48:57;;;;;;;7.23;3.50;;;11.60;99.90;;;;;;4588998;19;20776;-31
2023/03/15 02:50:30;;;;;;;12.33;4.63;;;11.60;99.90;;;;;;4588367;19;20436;-32
2023/03/15 02:52:02;;;;;;;10.02;3.72;;;11.70;99.90;;;;;;4590795;19;20478;-30
2023/03/15 02:53:33;;;;;;;9.25;4.20;;;11.70;99.90;;;;;;4588156;19;20039;-29
2023/03/15 02:55:05;;;;;;;10.32;4.28;;;11.70;99.90;;;;;;4589045;19;20460;-30
2023/03/15 02:56:38;;;;;;;8.63;3.60;;;11.80;99.90;;;;;;4588105;19;20011;-31
2023/03/15 02:58:10;;;;;;;13.80;4.00;;;11.70;99.90;;;;;;4589886;19;20437;-30
2023/03/15 02:59:43;;;;;;;8.97;3.47;;;11.80;99.90;;;;;;4590849;19;20445;-29
2023/03/15 03:01:15;;;;;;;10.30;3.90;;;11.70;99.90;;;;;;4588343;19;20437;-30
2023/03/15 03:02:46;;;;;;;8.82;3.30;;;11.70;99.90;;;;;;4588742;19;20018;-33
2023/03/15 03:04:18;;;;;;;8.43;3.13;;;11.70;99.90;;;;;;4590635;19;20367;-30
2023/03/15 03:05:50;;;;;;;9.53;3.73;;;11.70;99.90;;;;;;4590877;19;20006;-31
2023/03/15 03:07:22;;;;;;;14.18;4.18;;;11.70;99.90;;;;;;4590410;19;20522;-29
2023/03/15 03:08:53;;;;;;;8.10;3.33;;;11.80;99.90;;;;;;4590917;19;20011;-30
2023/03/15 03:10:29;;;;;;;8.30;3.33;;;11.70;99.90;;;;;;4589509;19;20015;-30
2023/03/15 03:12:00;;;;;;;11.10;4.45;;;11.70;99.90;;;;;;4590356;19;20429;-29
2023/03/15 03:13:35;;;;;;;8.20;3.70;;;11.70;99.90;;;;;;4589363;19;20445;-28
2023/03/15 03:15:07;;;;;;;16.50;5.35;;;11.80;99.90;;;;;;4590165;19;20429;-30
2023/03/15 03:16:40;;;;;;;12.97;5.20;;;11.80;99.90;;;;;;4589966;19;20073;-30
2023/03/15 03:18:11;;;;;;;14.63;4.17;;;11.70;99.90;;;;;;4590421;19;21123;-29
2023/03/15 03:19:43;;;;;;;;;;;11.70;99.90;;;;;;4591116;19;20479;-30
2023/03/15 03:21:14;;;;;;;10.53;3.27;;;11.70;99.90;;;;;;4590496;19;19915;-33
2023/03/15 03:22:46;;;;;;;;;;;11.80;99.90;;;;;;4591463;19;21072;-30
2023/03/15 03:24:17;;;;;;;15.57;5.93;;;11.90;99.90;;;;;;4590378;19;19938;-33
2023/03/15 03:25:49;;;;;;;11.75;4.22;;;11.90;99.90;;;;;;4589257;19;20015;-31
2023/03/15 03:27:21;;;;;;;11.10;4.67;;;11.90;99.90;;;;;;4587969;19;20022;-30
2023/03/15 03:28:55;;;;;;;8.93;4.07;;;11.80;99.90;;;;;;4589507;19;20444;-30
2023/03/15 03:30:26;;;;;;;11.50;3.93;;;11.80;99.90;;;;;;4589185;19;20439;-29
2023/03/15 03:31:59;;;;;;;11.33;4.73;;;11.80;99.90;;;;;;4589663;19;20437;-29
2023/03/15 03:33:31;;;;;;;8.23;4.23;;;11.80;99.90;;;;;;4590140;19;20481;-32
2023/03/15 03:35:03;;;;;;;8.52;4.28;;;11.80;99.90;;;;;;4590225;19;20467;-29
2023/03/15 03:36:36;;;;;;;14.07;4.40;;;11.80;99.90;;;;;;4589557;19;20346;-29
2023/03/15 03:38:10;;;;;;;10.82;4.25;;;11.80;99.90;;;;;;4589828;19;20783;-29
2023/03/15 03:39:42;;;;;;;11.07;4.37;;;11.80;99.90;;;;;;4590271;19;20016;-30
2023/03/15 03:41:13;;;;;;;9.55;3.97;;;11.80;99.90;;;;;;4589104;19;20468;-32
2023/03/15 03:42:45;;;;;;;11.07;4.73;;;11.80;99.90;;;;;;4588578;19;20018;-30
2023/03/15 03:44:16;;;;;;;9.48;4.53;;;11.80;99.90;;;;;;4589739;19;21005;-29
2023/03/15 03:45:47;;;;;;;9.10;3.63;;;11.90;99.90;;;;;;4588917;19;20025;-30
2023/03/15 03:47:19;;;;;;;8.20;3.88;;;11.80;99.90;;;;;;4589870;19;20476;-29
2023/03/15 03:48:50;;;;;;;8.00;3.90;;;11.80;99.90;;;;;;4589826;19;20084;-29
2023/03/15 03:50:21;;;;;;;9.98;3.40;;;11.80;99.90;;;;;;4588862;19;20413;-32
2023/03/15 03:51:54;;;;;;;10.97;4.30;;;11.80;99.90;;;;;;4588813;19;20013;-29
2023/03/15 03:53:26;;;;;;;12.20;4.03;;;11.80;99.90;;;;;;4589108;19;20465;-30
2023/03/15 03:54:58;;;;;;;7.78;4.45;;;11.80;99.90;;;;;;4589750;19;20858;-29
2023/03/15 03:56:30;;;;;;;8.25;4.40;;;11.80;99.90;;;;;;4589431;19;20027;-29
2023/03/15 03:58:01;;;;;;;11.17;3.50;;;11.80;99.90;;;;;;4589696;19;20458;-30
2023/03/15 03:59:32;;;;;;;11.00;4.28;;;11.80;99.90;;;;;;4588637;19;20469;-31
2023/03/15 04:01:04;;;;;;;9.95;4.53;;;11.70;99.90;;;;;;4589313;19;20471;-29
2023/03/15 04:02:37;;;;;;;9.83;4.00;;;11.80;99.90;;;;;;4587716;19;20018;-32
2023/03/15 04:04:08;;;;;;;9.65;3.88;;;11.70;99.90;;;;;;4589498;19;20432;-30
2023/03/15 04:05:40;;;;;;;9.18;4.38;;;11.80;99.90;;;;;;4588575;19;20472;-31
2023/03/15 04:07:12;;;;;;;10.87;3.57;;;11.70;99.90;;;;;;4589068;19;20010;-30
2023/03/15 04:08:44;;;;;;;9.90;4.60;;;11.70;99.90;;;;;;4589448;19;20433;-33
2023/03/15 04:10:16;;;;;;;9.82;3.85;;;11.70;99.90;;;;;;4589407;19;20437;-33
2023/03/15 04:11:47;;;;;;;8.35;4.30;;;11.80;99.90;;;;;;4589346;19;20014;-30
2023/03/15 04:13:20;;;;;;;7.60;3.60;;;11.70;99.90;;;;;;4589156;19;20010;-32
2023/03/15 04:14:51;;;;;;;9.88;3.95;;;11.70;99.90;;;;;;4589421;19;21030;-32
2023/03/15 04:16:23;;;;;;;10.90;4.78;;;11.70;99.90;;;;;;4589635;19;20735;-30
2023/03/15 04:17:57;;;;;;;10.77;3.50;;;11.70;99.90;;;;;;4589150;19;20092;-30
2023/03/15 04:19:29;;;;;;;8.32;3.65;;;11.60;99.50;;;;;;4587942;19;21033;-32
2023/03/15 04:21:01;;;;;;;11.17;4.00;;;11.50;99.60;;;;;;4589164;19;20014;-32
2023/03/15 04:22:33;;;;;;;9.82;4.90;;;11.50;99.60;;;;;;4589304;19;20479;-33
2023/03/15 04:24:06;;;;;;;9.87;3.83;;;11.50;99.40;;;;;;4589059;19;20014;-29
2023/03/15 04:25:38;;;;;;;9.33;4.40;;;11.50;99.40;;;;;;4589418;19;21249;-30
2023/03/15 04:27:13;;;;;;;12.90;4.87;;;11.50;99.40;;;;;;4589221;19;20413;-31
2023/03/15 04:28:45;;;;;;;9.80;3.50;;;11.60;99.50;;;;;;4589142;19;20467;-32
2023/03/15 04:30:18;;;;;;;10.33;3.47;;;11.60;99.40;;;;;;4589050;19;20429;-31
2023/03/15 04:31:50;;;;;;;11.20;3.40;;;11.60;99.20;;;;;;4589401;19;20417;-30
2023/03/15 04:33:23;;;;;;;11.82;3.28;;;11.60;99.20;;;;;;4589394;19;20035;-29
2023/03/15 04:34:54;;;;;;;6.87;2.70;;;11.30;98.70;;;;;;4589414;19;20078;-29
2023/03/15 04:36:27;;;;;;;7.33;2.97;;;11.30;98.90;;;;;;4588833;19;20804;-29
2023/03/15 04:38:02;;;;;;;8.60;2.80;;;11.20;98.50;;;;;;4588949;19;20417;-29
2023/03/15 04:39:34;;;;;;;7.57;2.40;;;11.30;98.40;;;;;;4588378;19;20606;-31
2023/03/15 04:41:09;;;;;;;9.52;3.38;;;11.30;98.50;;;;;;4590125;19;20456;-29
2023/03/15 04:42:42;;;;;;;7.70;2.57;;;11.30;98.50;;;;;;4591169;19;20363;-30
2023/03/15 04:44:15;;;;;;;8.18;3.03;;;11.40;98.60;;;;;;4589332;19;21020;-29
2023/03/15 04:45:47;;;;;;;9.80;2.87;;;11.30;98.30;;;;;;4590993;19;20015;-28
2023/03/15 04:47:19;;;;;;;11.02;2.80;;;11.40;98.20;;;;;;4589225;19;20476;-27
2023/03/15 04:48:51;;;;;;;6.57;2.50;;;11.40;98.10;;;;;;4588970;19;20017;-36
2023/03/15 04:50:24;;;;;;;8.20;3.30;;;11.50;98.10;;;;;;4588655;19;21024;-29
2023/03/15 04:51:55;;;;;;;9.10;2.88;;;11.50;98.00;;;;;;4588789;19;21020;-32
2023/03/15 04:53:27;;;;;;;8.20;3.20;;;11.60;97.80;;;;;;4587063;19;20082;-28
2023/03/15 04:54:59;;;;;;;11.00;2.83;;;11.70;98.10;;;;;;4588267;19;20011;-30
2023/03/15 04:56:30;;;;;;;6.75;3.42;;;11.70;97.90;;;;;;4586964;19;20500;-28
2023/03/15 04:58:02;;;;;;;;;;;11.70;97.80;;;;;;4589387;19;20011;-32
2023/03/15 04:59:33;;;;;;;8.53;2.93;;;11.70;97.80;;;;;;4588491;19;19974;-31
2023/03/15 05:01:05;;;;;;;9.67;2.53;;;11.80;97.30;;;;;;4588603;19;20025;-31
2023/03/15 05:02:40;;;;;;;11.90;4.18;;;11.80;97.40;;;;;;4588556;19;20469;-32
2023/03/15 05:04:12;;;;;;;9.53;3.03;;;11.60;97.80;;;;;;4591043;19;20477;-31
2023/03/15 05:05:45;;;;;;;9.90;3.77;;;11.60;97.60;;;;;;4587422;19;20461;-31
2023/03/15 05:07:16;;;;;;;13.32;4.20;;;11.70;97.70;;;;;;4588848;19;20551;-27
2023/03/15 05:08:48;;;;;;;10.55;3.67;;;11.70;97.70;;;;;;4587219;19;20365;-30
2023/03/15 05:10:19;;;;;;;10.25;3.65;;;11.80;97.60;;;;;;4587400;19;20011;-31
2023/03/15 05:11:52;;;;;;;8.82;3.00;;;11.80;97.60;;;;;;4587871;19;20185;-31
2023/03/15 05:13:24;;;;;;;11.67;3.83;;;12.00;97.90;;;;;;4587578;19;20048;-33
2023/03/15 05:14:55;;;;;;;15.55;5.32;;;12.20;97.60;;;;;;4584679;19;20452;-33
2023/03/15 05:16:26;;;;;;;;;;;12.20;97.40;;;;;;4585725;19;20019;-30
2023/03/15 05:17:57;;;;;;;9.40;4.03;;;12.20;97.60;;;;;;4587098;19;19925;-31
2023/03/15 05:19:29;;;;;;;8.95;3.20;;;12.20;97.20;;;;;;4586776;19;20468;-30
2023/03/15 05:21:00;;;;;;;;;;;12.20;97.40;;;;;;4587684;19;20034;-29
2023/03/15 05:22:31;;;;;;;10.43;4.17;;;12.30;97.60;;;;;;4586668;19;19929;-29
2023/03/15 05:24:03;;;;;;;9.70;3.20;;;12.20;97.10;;;;;;4589287;19;20449;-32
2023/03/15 05:25:35;;;;;;;10.77;4.90;;;12.20;97.20;;;;;;4588881;19;20010;-32
2023/03/15 05:27:06;;;;;;;13.00;3.63;;;12.30;97.10;;;;;;4588790;19;20479;-30
2023/03/15 05:28:37;;;;;;;9.18;3.33;;;12.20;97.20;;;;;;4587330;19;20018;-29
2023/03/15 05:30:09;;;;;;;10.60;3.38;;;12.20;97.20;;;;;;4587833;19;20108;-31
2023/03/15 05:31:41;;;;;;;10.50;3.63;;;12.20;97.20;;;;;;4591411;19;20031;-34
2023/03/15 05:33:13;;;;;;;7.73;3.23;;;12.10;97.20;;;;;;4591905;19;20421;-30
2023/03/15 05:34:45;;;;;;;;;;;12.10;97.20;;;;;;4589579;19;20444;-34
2023/03/15 05:36:17;;;;;;;12.57;4.00;;;12.10;97.40;;;;;;4590849;19;19948;-32
2023/03/15 05:37:51;;;;;;;9.20;4.30;;;12.00;97.30;;;;;;4591580;19;20018;-30
2023/03/15 05:39:23;;;;;;;10.53;4.13;;;12.00;97.30;;;;;;4593416;19;21073;-30
2023/03/15 05:40:55;;;;;;;11.17;3.93;;;12.00;97.20;;;;;;4592894;19;20502;-33
2023/03/15 05:42:26;;;;;;;12.55;3.75;;;12.00;97.20;;;;;;4590425;19;20589;-30
2023/03/15 05:43:58;;;;;;;7.80;3.75;;;12.00;97.20;;;;;;4591796;19;20018;-29
2023/03/15 05:45:29;;;;;;;11.43;3.78;;;12.00;97.30;;;;;;4591994;19;20017;-31
2023/03/15 05:47:00;;;;;;;11.85;4.22;;;12.00;97.50;;;;;;4590649;19;20365;-31
2023/03/15 05:48:32;;;;;;;;;;;12.00;97.50;;;;;;4591941;19;20015;-32
2023/03/15 05:50:05;;;;;;;12.10;3.83;;;12.00;98.10;;;;;;4590936;19;20365;-31
2023/03/15 05:51:36;;;;;;;11.73;4.10;;;11.90;97.70;;;;;;4590603;19;20491;-29
2023/03/15 05:53:09;;;;;;;9.80;4.35;;;11.90;97.70;;;;;;4590314;19;20018;-35
2023/03/15 05:54:40;;;;;;;10.10;3.47;;;11.90;97.70;;;;;;4593138;19;20403;-30
2023/03/15 05:56:11;;;;;;;11.35;4.00;;;11.90;97.80;;;;;;4593142;19;20453;-30
2023/03/15 05:57:43;;;;;;;13.07;4.47;;;11.90;97.80;;;;;;4590787;19;20508;-30
2023/03/15 05:59:15;;;;;;;;;;;12.00;97.90;;;;;;4592079;19;20445;-30
2023/03/15 06:00:48;;;;;;;9.67;3.47;;;11.90;97.80;;;;;;4591306;19;19923;-33
2023/03/15 06:02:20;;;;;;;9.73;3.20;;;12.00;97.70;;;;;;4590970;19;20330;-31
2023/03/15 06:03:52;;;;;;;9.07;3.83;;;11.90;97.90;;;;;;4591023;19;20476;-30
2023/03/15 06:05:24;;;;;;;9.82;3.20;;;11.90;97.90;;;;;;4590716;19;20452;-32
2023/03/15 06:06:56;;;;;;;9.93;3.40;;;11.80;97.80;;;;;;4590657;19;20571;-32
2023/03/15 06:08:27;;;;;;;7.22;3.05;;;11.80;97.60;;;;;;4590357;19;20516;-29
2023/03/15 06:09:58;;;;;;;10.40;3.72;;;11.80;97.70;;;;;;4567919;19;20381;-32
2023/03/15 06:11:30;;;;;;;13.10;4.03;;;11.80;97.60;;;;;;4591202;19;20014;-30
2023/03/15 06:13:02;;;;;;;12.05;4.03;;;11.80;97.60;;;;;;4592158;19;20354;-32
2023/03/15 06:14:33;;;;;;;11.23;3.72;;;11.70;97.70;;;;;;4591706;19;20021;-30
2023/03/15 06:16:05;;;;;;;8.68;3.17;;;11.70;97.80;;;;;;4591218;19;20014;-30
2023/03/15 06:17:36;;;;;;;14.57;3.85;;;11.70;97.60;;;;;;4589678;19;20014;-30
2023/03/15 06:19:07;;;;;;;10.02;3.30;;;11.60;97.50;;;;;;4590655;19;20014;-32
2023/03/15 06:20:39;;;;;;;9.60;3.88;;;11.60;97.50;;;;;;4592579;19;20014;-30
2023/03/15 06:22:10;;;;;;;10.60;3.57;;;11.60;97.30;;;;;;4592020;19;20073;-29
2023/03/15 06:23:42;;;;;;;7.75;3.55;;;11.50;97.30;;;;;;4591012;19;20484;-28
2023/03/15 06:25:13;;;;;;;9.50;3.40;;;11.60;97.60;;;;;;4589126;19;20035;-29
2023/03/15 06:26:45;;;;;;;;;;;11.60;97.70;;;;;;4591293;19;20024;-27
2023/03/15 06:28:17;;;;;;;11.83;4.03;;;11.60;97.60;;;;;;4590539;19;19918;-27
2023/03/15 06:29:49;;;;;;;11.53;4.00;;;11.70;97.50;;;;;;4590583;19;20026;-30
2023/03/15 06:31:21;;;;;;;10.60;4.23;;;11.70;97.50;;;;;;4589614;19;20444;-29
2023/03/15 06:32:53;;;;;;;9.23;4.10;;;11.70;97.50;;;;;;4588971;19;20476;-30
2023/03/15 06:34:24;;;;;;;11.07;3.53;;;11.60;97.10;;;;;;4589440;19;20688;-27
2023/03/15 06:35:56;;;;;;;8.50;3.40;;;11.60;97.10;;;;;;4591610;19;20863;-31
2023/03/15 06:37:28;;;;;;;6.53;2.80;;;11.70;97.20;;;;;;4590691;19;20010;-32
2023/03/15 06:39:01;;;;;;;10.23;3.28;;;11.70;97.00;;;;;;4591499;19;20811;-31
2023/03/15 06:40:33;;;;;;;9.83;3.53;;;11.80;97.00;;;;;;4591393;19;20022;-31
2023/03/15 06:42:07;;;;;;;8.63;3.10;;;11.80;97.00;;;;;;4589006;19;20457;-31
2023/03/15 06:43:39;;;;;;;9.10;4.47;;;11.80;97.00;;;;;;4589824;19;20021;-31
2023/03/15 06:45:10;;;;;;;9.15;4.35;;;11.90;97.00;;;;;;4590107;19;20464;-36
2023/03/15 06:46:42;;;;;;;11.97;4.90;;;12.00;97.10;;;;;;4589880;19;20006;-29
2023/03/15 06:48:19;;;;;;;8.75;4.72;;;12.00;97.20;;;;;;4589458;19;20432;-30
2023/03/15 06:49:51;;;;;;;10.00;4.10;;;12.10;96.70;;;;;;4589617;19;20419;-30
2023/03/15 06:51:22;;;;;;;10.18;5.55;;;11.90;96.80;;;;;;4591214;19;20452;-32
2023/03/15 06:52:55;;;;;;;13.68;7.55;;;12.00;96.70;;;;;;4590855;19;20027;-30
2023/03/15 06:54:28;;;;;;;17.77;10.43;;;12.00;96.80;;;;;;4591067;19;20033;-31
2023/03/15 06:56:02;;;;;;;18.37;11.43;;;12.10;97.00;;;;;;4590921;19;20479;-29
2023/03/15 06:57:33;;;;;;;18.27;10.47;;;12.00;96.60;;;;;;4589833;19;20841;-29
2023/03/15 06:59:06;;;;;;;20.67;7.77;;;12.00;96.70;;;;;;4590912;19;20432;-31
2023/03/15 07:00:39;;;;;;;13.50;5.70;;;12.10;96.70;;;;;;4590778;19;20479;-31
2023/03/15 07:02:16;;;;;;;13.43;7.30;;;12.20;97.30;;;;;;4588957;19;20437;-31
2023/03/15 07:03:48;;;;;;;9.73;4.10;;;12.50;96.70;;;;;;4590383;19;20420;-33
2023/03/15 07:05:22;;;;;;;14.10;5.17;;;12.50;96.20;;;;;;4590478;19;20440;-31
2023/03/15 07:06:54;;;;;;;15.82;6.85;;;12.40;96.30;;;;;;4591004;19;21044;-30
2023/03/15 07:08:26;;;;;;;13.60;6.40;;;12.20;96.40;;;;;;4589678;19;20014;-33
2023/03/15 07:09:58;;;;;;;10.83;5.17;;;12.20;96.70;;;;;;4590473;19;20440;-32
2023/03/15 07:11:31;;;;;;;15.03;7.40;;;12.10;96.80;;;;;;4590649;19;20922;-29
2023/03/15 07:13:05;;;;;;;15.57;7.17;;;12.10;96.70;;;;;;4590655;19;20445;-32
2023/03/15 07:14:36;;;;;;;14.37;5.87;;;12.00;96.70;;;;;;4590559;19;20432;-31
2023/03/15 07:16:08;;;;;;;11.30;4.90;;;11.90;96.60;;;;;;4589513;19;20511;-31
2023/03/15 07:17:39;;;;;;;10.38;4.20;;;11.80;96.60;;;;;;4588638;19;20014;-30
2023/03/15 07:19:11;;;;;;;9.93;4.43;;;11.70;96.60;;;;;;4590360;19;20019;-31
2023/03/15 07:20:43;;;;;;;9.40;4.07;;;11.70;96.80;;;;;;4590502;19;20433;-31
2023/03/15 07:22:15;;;;;;;10.47;3.87;;;11.70;96.90;;;;;;4590524;19;20011;-30
2023/03/15 07:23:46;;;;;;;8.93;3.40;;;11.80;96.90;;;;;;4590317;19;20452;-31
2023/03/15 07:25:22;;;;;;;10.70;4.33;;;11.80;97.00;;;;;;4589264;19;20094;-31
2023/03/15 07:26:55;;;;;;;10.20;4.30;;;11.80;97.10;;;;;;4589272;19;20505;-32
2023/03/15 07:28:27;;;;;;;9.93;4.00;;;11.90;97.20;;;;;;4589092;19;21238;-29
2023/03/15 07:30:01;;;;;;;8.47;3.93;;;11.90;97.10;;;;;;4589685;19;20539;-30
2023/03/15 07:31:36;;;;;;;9.90;3.67;;;11.80;96.80;;;;;;4589206;19;20393;-33
2023/03/15 07:33:07;;;;;;;9.65;4.07;;;11.80;96.80;;;;;;4588906;19;20449;-32
2023/03/15 07:34:39;;;;;;;;;;;11.80;96.90;;;;;;4590872;19;20014;-31
2023/03/15 07:36:12;;;;;;;8.37;3.23;;;11.80;97.00;;;;;;4590462;19;19919;-30
2023/03/15 07:37:46;;;;;;;11.13;3.77;;;11.80;96.80;;;;;;4588846;19;21028;-30
2023/03/15 07:39:18;;;;;;;10.07;4.70;;;11.80;97.10;;;;;;4589004;19;20464;-35
2023/03/15 07:40:49;;;;;;;11.75;4.32;;;11.90;97.30;;;;;;4589719;19;20760;-30
2023/03/15 07:42:21;;;;;;;10.37;4.70;;;12.00;96.90;;;;;;4589863;19;20624;-31
2023/03/15 07:43:54;;;;;;;10.13;3.53;;;12.00;97.10;;;;;;4589863;19;20433;-32
2023/03/15 07:45:26;;;;;;;10.60;3.83;;;12.00;97.20;;;;;;4590052;19;20425;-34
2023/03/15 07:46:58;;;;;;;11.63;4.78;;;12.00;97.10;;;;;;4588736;19;20898;-31
2023/03/15 07:48:31;;;;;;;14.23;4.97;;;12.00;97.30;;;;;;4589529;19;20018;-29
2023/03/15 07:50:04;;;;;;;9.85;4.53;;;12.00;97.40;;;;;;4589636;19;20444;-32
2023/03/15 07:51:36;;;;;;;13.43;4.17;;;12.00;97.40;;;;;;4589879;19;20099;-30
2023/03/15 07:53:07;;;;;;;13.07;4.65;;;12.00;97.30;;;;;;4587724;19;20855;-32
2023/03/15 07:54:39;;;;;;;10.88;4.97;;;11.90;96.80;;;;;;4589038;19;20022;-31
2023/03/15 07:56:10;;;;;;;10.57;4.38;;;11.80;96.60;;;;;;4590024;19;20018;-29
2023/03/15 07:57:42;;;;;;;8.90;4.95;;;11.80;96.70;;;;;;4588685;19;20014;-31
2023/03/15 07:59:13;;;;;;;9.55;4.15;;;11.80;97.00;;;;;;4590123;19;20010;-32
2023/03/15 08:00:44;;;;;;;10.00;3.28;;;11.70;97.10;;;;;;4589695;19;20011;-33
2023/03/15 08:02:16;;;;;;;8.75;3.40;;;11.60;96.80;;;;;;4589296;19;20018;-35